createdAt,value
2023-02-11T00:00:54.136Z,14.69
2023-02-11T00:01:54.107Z,14.70
2023-02-11T00:02:54.059Z,14.63
2023-02-11T00:03:54.030Z,14.67
2023-02-11T00:04:54.003Z,14.70
2023-02-11T00:05:53.962Z,14.72
2023-02-11T00:06:53.924Z,14.71
2023-02-11T01:26:51.292Z,14.45
2023-02-11T01:27:51.270Z,14.43
2023-02-11T01:28:51.253Z,14.28
2023-02-11T01:29:51.206Z,14.34
2023-02-11T01:30:51.217Z,14.40
2023-02-11T01:31:51.194Z,14.37
2023-02-11T01:32:51.119Z,14.48
2023-02-11T01:33:51.100Z,14.52
2023-02-11T01:34:51.074Z,14.45
2023-02-11T01:35:51.397Z,14.33
2023-02-11T01:36:51.011Z,14.25
2023-02-11T01:37:50.984Z,14.36
2023-02-11T01:38:50.961Z,14.37
2023-02-11T01:39:50.921Z,14.41
2023-02-11T01:40:50.882Z,14.43
2023-02-11T01:41:50.861Z,14.48
2023-02-11T01:42:51.226Z,14.36
2023-02-11T01:43:50.811Z,14.36
2023-02-11T01:44:50.747Z,14.34
2023-02-11T01:45:51.088Z,14.33
2023-02-11T01:46:50.771Z,14.40
2023-02-11T01:47:50.659Z,14.40
2023-02-11T01:48:50.665Z,14.37
2023-02-11T01:49:50.595Z,14.42
2023-02-11T01:50:50.558Z,14.37
2023-02-11T01:51:50.528Z,14.34
2023-02-11T01:52:50.497Z,14.25
2023-02-11T01:53:50.497Z,14.22
2023-02-11T01:54:50.428Z,14.31
2023-02-11T01:55:50.704Z,14.39
2023-02-11T01:56:50.370Z,14.39
2023-02-11T01:57:50.331Z,14.45
2023-02-11T01:58:50.296Z,14.37
2023-02-11T01:59:50.270Z,14.45
2023-02-11T02:00:50.238Z,14.37
2023-02-11T02:01:50.264Z,14.36
2023-02-11T02:02:50.177Z,14.28
2023-02-11T02:03:50.154Z,14.30
2023-02-11T02:04:50.109Z,14.34
2023-02-11T02:05:50.380Z,14.36
2023-02-11T02:06:50.037Z,14.36
2023-02-11T02:07:49.995Z,14.40
2023-02-11T02:08:49.973Z,14.34
2023-02-11T02:09:49.942Z,14.37
2023-02-11T02:10:49.896Z,14.25
2023-02-11T02:11:49.874Z,14.23
2023-02-11T02:12:49.830Z,14.23
2023-02-11T02:13:49.796Z,14.31
2023-02-11T02:14:49.753Z,14.31
2023-02-11T02:15:50.035Z,14.36
2023-02-11T02:16:49.673Z,14.40
2023-02-11T02:17:49.648Z,14.36
2023-02-11T02:18:49.614Z,14.26
2023-02-11T02:19:49.600Z,14.19
2023-02-11T02:20:49.577Z,14.14
2023-02-11T02:21:49.511Z,14.23
2023-02-11T02:22:49.503Z,14.28
2023-02-11T02:23:49.436Z,14.31
2023-02-11T02:24:49.387Z,14.34
2023-02-11T02:25:49.814Z,14.43
2023-02-11T02:26:49.328Z,14.30
2023-02-11T02:27:49.287Z,14.30
2023-02-11T02:28:49.235Z,14.23
2023-02-11T02:29:49.202Z,14.22
2023-02-11T02:30:49.179Z,14.31
2023-02-11T02:31:49.155Z,14.38
2023-02-11T02:32:49.077Z,14.25
2023-02-11T02:33:49.070Z,14.28
2023-02-11T02:34:49.028Z,14.40
2023-02-11T02:35:49.260Z,14.32
2023-02-11T02:36:48.954Z,14.20
2023-02-11T02:37:48.927Z,14.19
2023-02-11T02:38:48.900Z,14.20
2023-02-11T02:39:48.854Z,14.23
2023-02-11T02:40:48.828Z,14.36
2023-02-11T02:41:48.812Z,14.32
2023-02-11T02:42:48.759Z,14.28
2023-02-11T02:43:48.734Z,14.28
2023-02-11T02:44:48.717Z,14.19
2023-02-11T02:45:49.143Z,14.13
2023-02-11T02:46:48.674Z,14.08
2023-02-11T02:47:48.616Z,14.17
2023-02-11T02:48:48.584Z,14.28
2023-02-11T02:49:48.568Z,14.23
2023-02-11T02:50:48.541Z,14.25
2023-02-11T02:51:48.517Z,14.30
2023-02-11T02:52:48.463Z,14.20
2023-02-11T02:53:48.449Z,14.20
2023-02-11T02:54:48.418Z,14.14
2023-02-11T02:55:48.600Z,14.19
2023-02-11T02:56:48.353Z,14.23
2023-02-11T02:57:48.314Z,14.25
2023-02-11T02:58:48.284Z,14.23
2023-02-11T02:59:48.242Z,14.36
2023-02-11T03:00:48.217Z,14.36
2023-02-11T03:01:48.177Z,14.26
2023-02-11T03:02:48.144Z,14.17
2023-02-11T03:03:48.146Z,14.14
2023-02-11T03:04:48.089Z,14.13
2023-02-11T03:05:48.362Z,14.19
2023-02-11T03:06:48.040Z,14.16
2023-02-11T03:07:48.021Z,14.28
2023-02-11T03:08:47.985Z,14.30
2023-02-11T03:09:47.960Z,14.38
2023-02-11T03:10:47.942Z,14.22
2023-02-11T03:11:47.906Z,14.08
2023-02-11T03:12:47.927Z,13.98
2023-02-11T03:13:47.854Z,14.17
2023-02-11T03:14:47.821Z,14.20
2023-02-11T03:15:47.925Z,14.26
2023-02-11T03:16:47.754Z,14.20
2023-02-11T03:17:47.727Z,14.34
2023-02-11T03:18:47.703Z,14.31
2023-02-11T03:19:47.660Z,14.13
2023-02-11T03:20:47.629Z,14.08
2023-02-11T03:21:47.593Z,14.05
2023-02-11T03:22:47.565Z,14.16
2023-02-11T03:23:47.537Z,14.20
2023-02-11T03:24:47.502Z,14.20
2023-02-11T03:25:47.517Z,14.28
2023-02-11T03:26:47.440Z,14.28
2023-02-11T03:27:47.419Z,14.31
2023-02-11T03:28:47.389Z,14.16
2023-02-11T03:29:47.363Z,14.08
2023-02-11T03:30:47.369Z,14.08
2023-02-11T03:31:47.310Z,14.14
2023-02-11T03:32:47.260Z,14.14
2023-02-11T03:33:47.234Z,14.17
2023-02-11T03:34:47.194Z,14.22
2023-02-11T03:35:47.198Z,14.29
2023-02-11T03:36:47.178Z,14.31
2023-02-11T03:37:47.105Z,14.25
2023-02-11T03:38:47.071Z,14.06
2023-02-11T03:39:47.047Z,14.06
2023-02-11T03:40:47.008Z,14.13
2023-02-11T03:41:46.978Z,14.25
2023-02-11T03:42:46.943Z,14.22
2023-02-11T03:43:46.929Z,14.20
2023-02-11T03:44:46.877Z,14.31
2023-02-11T03:45:46.880Z,14.31
2023-02-11T03:46:46.819Z,14.06
2023-02-11T03:47:46.793Z,14.06
2023-02-11T03:48:46.767Z,14.08
2023-02-11T03:49:46.745Z,14.15
2023-02-11T03:50:46.718Z,14.17
2023-02-11T03:51:46.685Z,14.23
2023-02-11T03:52:47.519Z,14.26
2023-02-11T03:53:46.632Z,14.25
2023-02-11T03:54:46.623Z,14.20
2023-02-11T03:55:46.592Z,14.12
2023-02-11T03:56:46.566Z,14.09
2023-02-11T03:57:46.544Z,14.06
2023-02-11T03:58:46.528Z,14.14
2023-02-11T03:59:46.491Z,14.19
2023-02-11T04:00:46.533Z,14.22
2023-02-11T04:01:46.474Z,14.22
2023-02-11T04:02:46.448Z,14.33
2023-02-11T04:03:46.399Z,14.22
2023-02-11T04:04:46.397Z,14.15
2023-02-11T04:05:46.378Z,14.05
2023-02-11T04:06:46.334Z,14.06
2023-02-11T04:07:46.296Z,14.11
2023-02-11T04:08:46.294Z,14.12
2023-02-11T04:09:46.253Z,14.19
2023-02-11T04:10:46.214Z,14.17
2023-02-11T04:11:46.195Z,14.23
2023-02-11T04:12:46.171Z,14.14
2023-02-11T04:13:46.133Z,14.12
2023-02-11T04:14:46.106Z,14.02
2023-02-11T04:15:48.826Z,13.99
2023-02-11T04:16:46.063Z,14.08
2023-02-11T04:17:46.048Z,14.15
2023-02-11T04:18:46.010Z,14.17
2023-02-11T04:19:45.978Z,14.15
2023-02-11T04:20:45.946Z,14.22
2023-02-11T04:21:45.927Z,14.14
2023-02-11T04:22:45.883Z,14.06
2023-02-11T04:23:45.853Z,13.99
2023-02-11T04:24:45.840Z,14.04
2023-02-11T04:25:45.798Z,14.08
2023-02-11T04:26:45.782Z,14.09
2023-02-11T04:27:45.750Z,14.15
2023-02-11T04:28:45.748Z,14.14
2023-02-11T04:29:45.721Z,14.20
2023-02-11T04:30:45.787Z,14.05
2023-02-11T04:31:45.717Z,14.05
2023-02-11T04:32:45.648Z,14.02
2023-02-11T04:33:45.625Z,14.03
2023-02-11T04:34:45.602Z,14.08
2023-02-11T04:35:45.576Z,14.09
2023-02-11T04:36:46.575Z,14.12
2023-02-11T04:37:45.513Z,14.23
2023-02-11T04:38:45.493Z,14.17
2023-02-11T04:39:45.464Z,13.99
2023-02-11T04:40:45.450Z,13.93
2023-02-11T04:41:45.418Z,13.97
2023-02-11T04:42:45.393Z,14.09
2023-02-11T04:43:45.362Z,14.11
2023-02-11T04:44:45.353Z,14.08
2023-02-11T04:45:45.320Z,14.08
2023-02-11T04:46:45.288Z,14.23
2023-02-11T04:47:45.248Z,14.11
2023-02-11T04:48:45.221Z,13.98
2023-02-11T04:49:45.187Z,14.00
2023-02-11T04:50:45.153Z,14.02
2023-02-11T04:51:47.579Z,14.08
2023-02-11T04:52:45.109Z,14.11
2023-02-11T04:53:45.077Z,14.09
2023-02-11T04:54:45.055Z,14.16
2023-02-11T04:55:45.024Z,14.23
2023-02-11T04:56:44.992Z,14.06
2023-02-11T04:57:44.961Z,14.00
2023-02-11T04:58:44.928Z,13.95
2023-02-11T04:59:44.907Z,14.05
2023-02-11T05:00:44.885Z,14.15
2023-02-11T05:01:44.861Z,14.09
2023-02-11T05:02:44.840Z,14.14
2023-02-11T05:03:44.908Z,14.21
2023-02-11T05:04:44.782Z,14.11
2023-02-11T05:05:44.755Z,14.06
2023-02-11T05:06:44.763Z,13.98
2023-02-11T05:07:44.717Z,13.97
2023-02-11T05:08:44.701Z,14.05
2023-02-11T05:09:44.669Z,14.06
2023-02-11T05:10:44.676Z,14.09
2023-02-11T05:11:44.610Z,14.11
2023-02-11T05:12:44.586Z,14.21
2023-02-11T05:13:44.564Z,14.11
2023-02-11T05:14:44.536Z,14.12
2023-02-11T05:15:44.524Z,14.00
2023-02-11T05:16:44.663Z,13.97
2023-02-11T05:17:44.466Z,13.98
2023-02-11T05:18:44.456Z,14.11
2023-02-11T05:19:44.430Z,14.08
2023-02-11T05:20:44.403Z,14.00
2023-02-11T05:22:00.224Z,14.11
2023-02-11T05:22:45.362Z,14.11
2023-02-11T05:23:44.339Z,13.97
2023-02-11T05:24:44.316Z,13.94
2023-02-11T05:25:44.303Z,14.00
2023-02-11T05:26:44.269Z,14.05
2023-02-11T05:27:44.244Z,14.08
2023-02-11T05:28:44.253Z,14.03
2023-02-11T05:29:44.209Z,14.03
2023-02-11T05:30:44.197Z,14.15
2023-02-11T05:31:44.170Z,14.00
2023-02-11T05:32:44.155Z,13.93
2023-02-11T05:33:44.116Z,13.92
2023-02-11T05:34:44.096Z,14.03
2023-02-11T05:35:44.080Z,14.09
2023-02-11T05:36:44.061Z,14.05
2023-02-11T05:37:44.042Z,14.05
2023-02-11T05:38:44.041Z,14.14
2023-02-11T05:39:43.997Z,14.11
2023-02-11T05:40:44.040Z,13.98
2023-02-11T05:41:43.955Z,13.86
2023-02-11T05:42:43.939Z,13.91
2023-02-11T05:43:43.911Z,13.98
2023-02-11T05:44:43.886Z,14.01
2023-02-11T05:45:43.862Z,14.06
2023-02-11T05:46:43.936Z,14.01
2023-02-11T05:47:43.804Z,14.14
2023-02-11T05:48:43.773Z,13.98
2023-02-11T05:49:43.749Z,13.98
2023-02-11T05:50:43.722Z,13.91
2023-02-11T05:51:43.699Z,13.91
2023-02-11T05:52:43.705Z,14.05
2023-02-11T05:53:43.649Z,14.11
2023-02-11T05:54:43.635Z,14.06
2023-02-11T05:55:43.617Z,14.14
2023-02-11T05:56:44.915Z,14.18
2023-02-11T05:57:43.562Z,14.09
2023-02-11T05:58:43.539Z,14.03
2023-02-11T05:59:43.514Z,13.94
2023-02-11T06:00:43.481Z,13.89
2023-02-11T06:01:43.457Z,14.00
2023-02-11T06:02:43.567Z,14.03
2023-02-11T06:03:43.439Z,13.98
2023-02-11T06:04:43.385Z,14.06
2023-02-11T06:05:43.358Z,14.08
2023-02-11T06:06:43.332Z,14.03
2023-02-11T06:07:43.302Z,13.91
2023-02-11T06:08:43.283Z,13.91
2023-02-11T06:09:43.250Z,13.97
2023-02-11T06:10:43.228Z,14.01
2023-02-11T06:11:43.195Z,14.01
2023-02-11T06:12:43.178Z,13.98
2023-02-11T06:13:43.144Z,14.08
2023-02-11T06:14:43.123Z,14.09
2023-02-11T06:15:43.118Z,13.91
2023-02-11T06:16:43.081Z,13.91
2023-02-11T06:17:43.075Z,14.00
2023-02-11T06:18:43.017Z,14.00
2023-02-11T06:19:42.994Z,14.04
2023-02-11T06:20:42.977Z,14.06
2023-02-11T06:21:44.564Z,14.12
2023-02-11T06:22:42.941Z,14.11
2023-02-11T06:23:42.898Z,13.98
2023-02-11T06:25:00.293Z,14.00
2023-02-11T06:25:43.858Z,13.97
2023-02-11T06:26:42.867Z,14.01
2023-02-11T06:27:42.823Z,14.05
2023-02-11T06:28:42.931Z,14.03
2023-02-11T06:29:42.756Z,14.08
2023-02-11T06:30:42.794Z,14.06
2023-02-11T06:31:42.809Z,14.06
2023-02-11T06:32:45.254Z,13.94
2023-02-11T06:33:42.662Z,13.88
2023-02-11T06:34:42.643Z,13.92
2023-02-11T06:35:42.618Z,13.95
2023-02-11T06:36:42.584Z,13.98
2023-02-11T06:37:42.585Z,14.03
2023-02-11T06:38:42.535Z,14.08
2023-02-11T06:39:42.505Z,14.08
2023-02-11T06:40:42.475Z,13.95
2023-02-11T06:41:42.450Z,13.95
2023-02-11T06:42:42.442Z,13.86
2023-02-11T06:43:42.407Z,13.89
2023-02-11T06:44:42.377Z,13.97
2023-02-11T06:45:42.355Z,14.00
2023-02-11T06:46:42.401Z,14.03
2023-02-11T06:47:42.302Z,14.06
2023-02-11T06:48:44.734Z,14.00
2023-02-11T06:49:42.264Z,13.94
2023-02-11T06:50:42.244Z,13.89
2023-02-11T06:51:42.194Z,13.86
2023-02-11T06:52:42.178Z,13.94
2023-02-11T06:53:42.148Z,13.98
2023-02-11T06:54:42.104Z,13.95
2023-02-11T06:55:42.086Z,14.04
2023-02-11T06:56:42.045Z,14.10
2023-02-11T06:57:42.008Z,13.98
2023-02-11T06:58:41.975Z,13.94
2023-02-11T06:59:41.950Z,13.88
2023-02-11T07:00:41.922Z,13.95
2023-02-11T07:01:41.944Z,13.97
2023-02-11T07:02:41.881Z,13.92
2023-02-11T07:03:41.823Z,14.06
2023-02-11T07:04:41.791Z,14.09
2023-02-11T07:05:41.767Z,13.98
2023-02-11T07:06:41.725Z,13.92
2023-02-11T07:07:41.693Z,13.92
2023-02-11T07:08:41.677Z,13.95
2023-02-11T07:09:41.633Z,13.97
2023-02-11T07:10:41.607Z,13.98
2023-02-11T07:11:41.564Z,14.01
2023-02-11T07:12:41.545Z,14.06
2023-02-11T07:13:41.522Z,13.94
2023-02-11T07:14:41.477Z,13.92
2023-02-11T07:15:41.445Z,13.92
2023-02-11T07:16:41.440Z,14.00
2023-02-11T07:17:41.365Z,14.01
2023-02-11T07:18:41.341Z,14.03
2023-02-11T07:19:41.330Z,14.07
2023-02-11T07:20:41.284Z,14.04
2023-02-11T07:21:41.265Z,13.95
2023-02-11T07:22:41.225Z,14.03
2023-02-11T07:23:41.203Z,13.91
2023-02-11T07:24:41.177Z,13.97
2023-02-11T07:25:41.125Z,13.94
2023-02-11T07:26:41.080Z,13.94
2023-02-11T07:27:41.044Z,14.00
2023-02-11T07:28:41.015Z,14.06
2023-02-11T07:29:40.994Z,13.98
2023-02-11T07:30:41.017Z,13.92
2023-02-11T07:31:40.971Z,13.95
2023-02-11T07:32:40.879Z,13.95
2023-02-11T07:33:40.850Z,14.00
2023-02-11T07:34:40.877Z,13.97
2023-02-11T07:35:42.670Z,14.00
2023-02-11T07:36:40.784Z,14.11
2023-02-11T07:37:40.759Z,14.01
2023-02-11T07:38:40.751Z,13.97
2023-02-11T07:39:40.717Z,13.95
2023-02-11T07:40:40.681Z,13.92
2023-02-11T07:41:40.660Z,13.91
2023-02-11T07:42:40.625Z,13.97
2023-02-11T07:43:40.595Z,13.95
2023-02-11T07:44:40.572Z,13.95
2023-02-11T07:45:40.542Z,13.97
2023-02-11T07:46:40.555Z,13.98
2023-02-11T07:47:40.498Z,13.95
2023-02-11T07:48:40.467Z,13.94
2023-02-11T07:49:40.446Z,14.03
2023-02-11T07:50:40.432Z,13.98
2023-02-11T07:51:40.405Z,14.01
2023-02-11T07:52:40.364Z,14.01
2023-02-11T07:53:40.330Z,14.05
2023-02-11T07:54:40.331Z,14.03
2023-02-11T07:55:40.262Z,14.09
2023-02-11T07:56:40.236Z,14.05
2023-02-11T07:57:40.201Z,13.98
2023-02-11T07:58:40.177Z,14.03
2023-02-11T07:59:40.150Z,14.08
2023-02-11T08:00:40.133Z,14.11
2023-02-11T08:01:40.087Z,14.11
2023-02-11T08:02:40.056Z,14.12
2023-02-11T08:03:40.022Z,14.23
2023-02-11T08:04:39.994Z,14.21
2023-02-11T08:05:39.976Z,14.14
2023-02-11T08:06:39.946Z,14.18
2023-02-11T08:07:39.912Z,14.21
2023-02-11T08:08:39.875Z,14.18
2023-02-11T08:09:39.861Z,14.22
2023-02-11T08:10:39.816Z,14.29
2023-02-11T08:11:39.787Z,14.24
2023-02-11T08:12:39.774Z,14.18
2023-02-11T08:13:39.730Z,14.09
2023-02-11T08:14:39.713Z,14.08
2023-02-11T08:15:39.681Z,14.06
2023-02-11T08:16:39.724Z,14.16
2023-02-11T08:17:39.613Z,14.16
2023-02-11T08:18:39.605Z,14.12
2023-02-11T08:19:39.579Z,14.18
2023-02-11T08:20:39.544Z,14.15
2023-02-11T08:21:39.512Z,14.06
2023-02-11T08:22:39.483Z,14.04
2023-02-11T08:23:39.458Z,14.03
2023-02-11T08:24:39.443Z,14.08
2023-02-11T08:25:39.387Z,14.11
2023-02-11T08:26:39.354Z,14.08
2023-02-11T08:27:39.326Z,14.06
2023-02-11T08:28:39.294Z,14.12
2023-02-11T08:29:39.286Z,14.09
2023-02-11T08:30:39.369Z,14.11
2023-02-11T08:31:39.468Z,14.09
2023-02-11T08:32:39.169Z,14.12
2023-02-11T08:33:39.134Z,14.14
2023-02-11T08:34:39.116Z,14.12
2023-02-11T08:35:39.092Z,14.18
2023-02-11T08:36:39.049Z,14.18
2023-02-11T08:37:39.015Z,14.24
2023-02-11T08:38:38.985Z,14.21
2023-02-11T08:39:38.969Z,14.16
2023-02-11T08:40:38.920Z,14.18
2023-02-11T08:41:38.903Z,14.16
2023-02-11T08:42:38.862Z,14.15
2023-02-11T08:43:38.820Z,14.21
2023-02-11T08:44:38.779Z,14.20
2023-02-11T08:45:38.778Z,14.16
2023-02-11T08:46:38.710Z,14.24
2023-02-11T08:47:38.680Z,14.33
2023-02-11T08:48:38.643Z,14.30
2023-02-11T08:49:38.612Z,14.24
2023-02-11T08:50:38.580Z,14.29
2023-02-11T08:51:38.546Z,14.25
2023-02-11T08:52:38.498Z,14.29
2023-02-11T08:53:38.469Z,14.18
2023-02-11T08:54:38.437Z,14.25
2023-02-11T08:55:38.411Z,14.32
2023-02-11T08:56:38.381Z,14.30
2023-02-11T08:57:38.351Z,14.29
2023-02-11T08:58:38.309Z,14.30
2023-02-11T08:59:38.275Z,14.29
2023-02-11T09:00:38.245Z,14.30
2023-02-11T09:01:38.252Z,14.27
2023-02-11T09:02:38.264Z,14.29
2023-02-11T09:03:38.154Z,14.33
2023-02-11T09:04:38.150Z,14.30
2023-02-11T09:05:38.112Z,14.30
2023-02-11T09:06:38.084Z,14.27
2023-02-11T09:07:38.095Z,14.33
2023-02-11T09:08:38.051Z,14.32
2023-02-11T09:09:38.024Z,14.25
2023-02-11T09:10:38.002Z,14.29
2023-02-11T09:11:37.950Z,14.21
2023-02-11T09:12:37.952Z,14.31
2023-02-11T09:13:37.897Z,14.29
2023-02-11T09:14:37.876Z,14.33
2023-02-11T09:15:37.861Z,14.25
2023-02-11T09:16:37.908Z,14.28
2023-02-11T09:17:37.803Z,14.35
2023-02-11T09:18:37.765Z,14.35
2023-02-11T09:19:37.724Z,14.32
2023-02-11T09:20:37.706Z,14.24
2023-02-11T09:21:37.657Z,14.18
2023-02-11T09:22:37.625Z,14.28
2023-02-11T09:23:37.613Z,14.25
2023-02-11T09:24:37.622Z,14.37
2023-02-11T09:25:37.569Z,14.28
2023-02-11T09:26:37.533Z,14.19
2023-02-11T09:27:37.509Z,14.24
2023-02-11T09:28:37.641Z,14.22
2023-02-11T09:29:37.470Z,14.25
2023-02-11T09:30:37.542Z,14.28
2023-02-11T09:31:37.568Z,14.38
2023-02-11T09:32:37.393Z,14.30
2023-02-11T09:33:37.371Z,14.16
2023-02-11T09:34:37.374Z,14.19
2023-02-11T09:35:37.423Z,14.22
2023-02-11T09:36:37.309Z,14.18
2023-02-11T09:37:37.586Z,14.22
2023-02-11T09:38:37.278Z,14.18
2023-02-11T09:39:38.173Z,14.25
2023-02-11T09:40:37.212Z,14.19
2023-02-11T09:41:37.188Z,14.25
2023-02-11T09:42:37.148Z,14.22
2023-02-11T09:43:37.141Z,14.18
2023-02-11T09:44:37.104Z,14.19
2023-02-11T09:45:37.073Z,14.24
2023-02-11T09:46:37.051Z,14.18
2023-02-11T09:47:37.019Z,14.13
2023-02-11T09:48:36.984Z,14.18
2023-02-11T09:49:36.956Z,14.07
2023-02-11T09:50:36.930Z,14.18
2023-02-11T09:51:36.903Z,14.07
2023-02-11T09:52:36.869Z,14.12
2023-02-11T09:53:36.837Z,14.12
2023-02-11T09:54:36.815Z,14.13
2023-02-11T09:55:36.800Z,14.04
2023-02-11T09:56:36.768Z,14.15
2023-02-11T09:57:36.754Z,14.04
2023-02-11T09:58:37.603Z,14.07
2023-02-11T09:59:36.669Z,14.12
2023-02-11T10:00:36.648Z,14.12
2023-02-11T10:01:36.644Z,14.10
2023-02-11T10:02:36.567Z,14.04
2023-02-11T10:03:36.540Z,14.10
2023-02-11T10:04:36.537Z,14.05
2023-02-11T10:05:36.481Z,14.09
2023-02-11T10:06:36.476Z,14.15
2023-02-11T10:07:36.445Z,14.03
2023-02-11T10:08:36.404Z,13.94
2023-02-11T10:09:36.379Z,14.01
2023-02-11T10:10:36.372Z,14.07
2023-02-11T10:11:36.332Z,14.09
2023-02-11T10:12:36.284Z,14.10
2023-02-11T10:13:36.264Z,13.95
2023-02-11T10:14:36.233Z,13.97
2023-02-11T10:15:36.251Z,14.07
2023-02-11T10:16:36.185Z,13.80
2023-02-11T10:17:36.150Z,13.71
2023-02-11T10:18:36.134Z,13.80
2023-02-11T10:19:36.108Z,13.66
2023-02-11T10:20:36.092Z,13.80
2023-02-11T10:21:36.073Z,13.69
2023-02-11T10:22:36.043Z,13.86
2023-02-11T10:23:36.031Z,13.78
2023-02-11T10:24:35.993Z,13.76
2023-02-11T10:25:35.965Z,13.76
2023-02-11T10:26:35.941Z,13.77
2023-02-11T10:27:35.930Z,13.87
2023-02-11T10:28:35.974Z,13.87
2023-02-11T10:29:35.869Z,13.83
2023-02-11T10:30:35.860Z,13.71
2023-02-11T10:31:36.043Z,13.87
2023-02-11T10:32:35.799Z,13.86
2023-02-11T10:33:35.786Z,13.77
2023-02-11T10:34:35.862Z,13.76
2023-02-11T10:35:35.743Z,13.77
2023-02-11T10:36:35.703Z,13.74
2023-02-11T10:37:35.673Z,13.76
2023-02-11T10:38:35.636Z,13.70
2023-02-11T10:39:35.606Z,13.47
2023-02-11T10:40:35.584Z,13.53
2023-02-11T10:41:35.544Z,13.51
2023-02-11T10:42:35.516Z,13.65
2023-02-11T10:43:35.474Z,13.66
2023-02-11T10:44:35.445Z,13.53
2023-02-11T10:45:35.400Z,13.69
2023-02-11T10:46:35.414Z,13.39
2023-02-11T10:47:35.351Z,13.33
2023-02-11T10:48:35.297Z,13.28
2023-02-11T10:49:35.281Z,13.27
2023-02-11T10:50:35.257Z,13.24
2023-02-11T10:51:35.216Z,13.24
2023-02-11T10:52:35.193Z,13.19
2023-02-11T10:53:35.149Z,13.21
2023-02-11T10:54:35.118Z,13.22
2023-02-11T10:55:35.089Z,13.24
2023-02-11T10:56:35.058Z,13.21
2023-02-11T10:57:35.037Z,13.22
2023-02-11T10:58:35.004Z,13.19
2023-02-11T10:59:34.991Z,13.22
2023-02-11T11:00:34.952Z,13.17
2023-02-11T11:01:34.951Z,13.29
2023-02-11T11:02:34.909Z,13.19
2023-02-11T11:03:34.899Z,13.24
2023-02-11T11:04:34.933Z,13.14
2023-02-11T11:05:34.871Z,13.10
2023-02-11T11:06:34.823Z,13.07
2023-02-11T11:07:34.799Z,13.08
2023-02-11T11:08:34.792Z,13.04
2023-02-11T11:09:34.754Z,13.04
2023-02-11T11:10:34.728Z,13.07
2023-02-11T11:11:34.711Z,13.02
2023-02-11T11:12:34.699Z,13.03
2023-02-11T11:13:34.670Z,12.95
2023-02-11T11:14:34.683Z,12.96
2023-02-11T11:15:34.674Z,12.98
2023-02-11T11:16:34.619Z,13.05
2023-02-11T11:17:34.608Z,13.11
2023-02-11T11:18:34.592Z,13.19
2023-02-11T11:19:34.576Z,13.16
2023-02-11T11:20:34.548Z,13.14
2023-02-11T11:21:34.547Z,13.16
2023-02-11T11:22:34.520Z,13.21
2023-02-11T11:23:34.493Z,13.19
2023-02-11T11:24:34.468Z,13.31
2023-02-11T11:25:34.447Z,13.31
2023-02-11T11:26:34.423Z,13.36
2023-02-11T11:27:34.421Z,13.44
2023-02-11T11:28:34.427Z,13.47
2023-02-11T11:29:34.410Z,13.50
2023-02-11T11:30:34.370Z,13.59
2023-02-11T11:31:34.431Z,13.65
2023-02-11T11:32:34.323Z,13.63
2023-02-11T11:33:34.324Z,13.65
2023-02-11T11:34:34.265Z,13.74
2023-02-11T11:35:34.250Z,13.77
2023-02-11T11:36:34.234Z,13.77
2023-02-11T11:37:34.199Z,13.79
2023-02-11T11:38:34.179Z,13.82
2023-02-11T11:39:34.152Z,13.89
2023-02-11T11:40:34.137Z,13.94
2023-02-11T11:41:34.096Z,14.03
2023-02-11T11:42:34.080Z,14.01
2023-02-11T11:43:34.047Z,14.05
2023-02-11T11:44:34.019Z,14.06
2023-02-11T11:45:33.986Z,14.09
2023-02-11T11:46:34.068Z,14.08
2023-02-11T11:47:33.932Z,14.15
2023-02-11T11:48:33.914Z,14.15
2023-02-11T11:49:33.903Z,14.24
2023-02-11T11:50:33.851Z,14.25
2023-02-11T11:51:33.832Z,14.24
2023-02-11T11:52:33.802Z,14.30
2023-02-11T11:53:33.777Z,14.35
2023-02-11T11:54:33.757Z,14.33
2023-02-11T11:55:33.738Z,14.35
2023-02-11T11:56:33.690Z,14.43
2023-02-11T11:57:33.666Z,14.40
2023-02-11T11:58:33.632Z,14.46
2023-02-11T11:59:33.602Z,14.46
2023-02-11T12:00:33.577Z,14.46
2023-02-11T12:01:33.588Z,14.55
2023-02-11T12:02:33.544Z,14.57
2023-02-11T12:03:33.514Z,14.58
2023-02-11T12:04:33.498Z,14.65
2023-02-11T12:05:36.215Z,14.58
2023-02-11T12:06:33.442Z,14.63
2023-02-11T12:07:33.420Z,14.64
2023-02-11T12:08:33.394Z,14.65
2023-02-11T12:09:33.366Z,14.69
2023-02-11T12:10:33.344Z,14.73
2023-02-11T12:11:33.331Z,14.78
2023-02-11T12:12:33.298Z,14.73
2023-02-11T12:13:33.273Z,14.75
2023-02-11T12:14:33.254Z,14.81
2023-02-11T12:15:33.223Z,14.82
2023-02-11T12:16:33.302Z,14.84
2023-02-11T12:17:33.183Z,14.85
2023-02-11T12:18:33.170Z,14.92
2023-02-11T12:19:33.166Z,14.95
2023-02-11T12:20:33.129Z,14.91
2023-02-11T12:21:33.106Z,14.93
2023-02-11T12:22:33.099Z,14.99
2023-02-11T12:23:33.069Z,14.99
2023-02-11T12:24:33.059Z,14.95
2023-02-11T12:25:33.026Z,14.99
2023-02-11T12:26:32.996Z,15.05
2023-02-11T12:27:32.975Z,15.05
2023-02-11T12:28:33.031Z,15.08
2023-02-11T12:29:32.929Z,15.07
2023-02-11T12:30:32.926Z,15.10
2023-02-11T12:31:32.942Z,15.10
2023-02-11T12:32:32.875Z,15.13
2023-02-11T12:33:32.848Z,15.17
2023-02-11T12:34:32.824Z,15.19
2023-02-11T12:35:32.806Z,15.22
2023-02-11T12:36:32.776Z,15.17
2023-02-11T12:37:32.778Z,15.20
2023-02-11T12:38:32.756Z,15.19
2023-02-11T12:39:32.723Z,15.24
2023-02-11T12:40:32.701Z,15.24
2023-02-11T12:41:32.677Z,15.24
2023-02-11T12:42:32.657Z,15.27
2023-02-11T12:43:32.623Z,15.27
2023-02-11T12:44:32.612Z,15.33
2023-02-11T12:45:32.629Z,15.30
2023-02-11T12:46:32.564Z,15.33
2023-02-11T12:47:32.531Z,15.36
2023-02-11T12:48:35.398Z,15.36
2023-02-11T12:49:32.499Z,15.36
2023-02-11T12:50:32.467Z,15.37
2023-02-11T12:51:32.448Z,15.33
2023-02-11T12:52:32.424Z,15.28
2023-02-11T12:53:32.396Z,15.31
2023-02-11T12:54:32.379Z,15.24
2023-02-11T12:55:32.344Z,15.27
2023-02-11T12:56:32.323Z,15.28
2023-02-11T12:57:32.299Z,15.24
2023-02-11T12:58:44.099Z,15.20
2023-02-11T12:59:33.275Z,15.24
2023-02-11T13:00:32.228Z,15.20
2023-02-11T13:01:32.263Z,15.20
2023-02-11T13:02:32.233Z,15.25
2023-02-11T13:03:32.154Z,15.24
2023-02-11T13:04:32.126Z,15.24
2023-02-11T13:05:32.096Z,15.25
2023-02-11T13:06:32.072Z,15.20
2023-02-11T13:07:32.049Z,15.24
2023-02-11T13:08:32.017Z,15.19
2023-02-11T13:09:31.997Z,15.22
2023-02-11T13:10:31.972Z,15.20
2023-02-11T13:11:31.931Z,15.28
2023-02-11T13:12:31.915Z,15.23
2023-02-11T13:13:31.876Z,15.19
2023-02-11T13:14:31.849Z,15.22
2023-02-11T13:15:31.828Z,15.24
2023-02-11T13:16:31.827Z,15.19
2023-02-11T13:17:31.773Z,15.24
2023-02-11T13:18:31.752Z,15.20
2023-02-11T13:19:31.714Z,15.20
2023-02-11T13:20:31.688Z,15.16
2023-02-11T13:21:31.665Z,15.20
2023-02-11T13:22:31.635Z,15.17
2023-02-11T13:23:31.800Z,15.13
2023-02-11T13:24:31.582Z,15.11
2023-02-11T13:25:31.550Z,15.10
2023-02-11T13:26:31.530Z,15.08
2023-02-11T13:27:31.505Z,15.10
2023-02-11T13:28:31.548Z,15.07
2023-02-11T13:29:31.448Z,15.03
2023-02-11T13:30:31.465Z,15.07
2023-02-11T13:31:31.566Z,15.03
2023-02-11T13:32:31.363Z,15.07
2023-02-11T13:33:31.333Z,15.07
2023-02-11T13:34:31.313Z,15.08
2023-02-11T13:35:31.281Z,15.02
2023-02-11T13:36:31.261Z,15.03
2023-02-11T13:37:31.228Z,15.09
2023-02-11T13:38:31.219Z,15.05
2023-02-11T13:39:31.194Z,15.03
2023-02-11T13:40:31.145Z,15.05
2023-02-11T13:41:31.117Z,15.05
2023-02-11T13:42:31.094Z,15.07
2023-02-11T13:43:31.092Z,15.07
2023-02-11T13:44:31.039Z,15.05
2023-02-11T13:45:31.009Z,15.02
2023-02-11T13:46:30.973Z,15.02
2023-02-11T13:47:30.947Z,15.03
2023-02-11T13:48:30.920Z,15.05
2023-02-11T13:49:30.885Z,15.07
2023-02-11T13:50:30.871Z,15.05
2023-02-11T13:51:30.825Z,15.02
2023-02-11T13:52:30.824Z,15.05
2023-02-11T13:53:30.775Z,15.05
2023-02-11T13:54:30.758Z,15.09
2023-02-11T13:55:30.740Z,15.07
2023-02-11T13:56:30.697Z,15.08
2023-02-11T13:57:30.677Z,15.13
2023-02-11T13:58:30.639Z,15.13
2023-02-11T13:59:30.628Z,15.16
2023-02-11T14:00:30.587Z,15.11
2023-02-11T14:01:30.595Z,15.11
2023-02-11T14:02:30.631Z,15.19
2023-02-11T14:03:30.547Z,15.13
2023-02-11T14:04:30.483Z,15.13
2023-02-11T14:05:30.445Z,15.19
2023-02-11T14:06:30.409Z,15.19
2023-02-11T14:07:30.378Z,15.16
2023-02-11T14:08:30.382Z,15.13
2023-02-11T14:09:30.315Z,15.17
2023-02-11T14:10:30.306Z,15.17
2023-02-11T14:11:30.257Z,15.19